createdAt,value
2018-02-13T00:00:36.098Z,4.50
2018-02-13T00:03:04.358Z,5.75
2018-02-13T00:05:31.830Z,4.32
2018-02-13T00:08:00.117Z,5.32
2018-02-13T00:10:28.362Z,5.28
2018-02-13T00:12:56.609Z,4.20
2018-02-13T00:15:24.893Z,5.47
2018-02-13T00:17:52.390Z,4.03
2018-02-13T00:20:19.873Z,4.53
2018-02-13T00:22:50.470Z,4.60
2018-02-13T00:25:17.958Z,5.32
2018-02-13T00:27:45.457Z,5.05
2018-02-13T00:30:12.945Z,4.95
2018-02-13T00:32:40.417Z,4.87
2018-02-13T00:35:08.653Z,4.15
2018-02-13T00:37:36.246Z,4.65
2018-02-13T00:40:05.493Z,4.25
2018-02-13T00:42:33.111Z,4.65
2018-02-13T00:45:00.617Z,4.65
2018-02-13T00:47:28.101Z,4.87
2018-02-13T00:49:56.232Z,4.45
2018-02-13T00:52:23.758Z,4.75
2018-02-13T00:57:25.287Z,4.85
2018-02-13T00:59:52.765Z,4.82
2018-02-13T01:02:20.249Z,4.90
2018-02-13T01:04:48.521Z,5.35
2018-02-13T01:07:15.991Z,5.10
2018-02-13T01:09:43.509Z,4.95
2018-02-13T01:12:11.746Z,5.35
2018-02-13T01:14:39.221Z,5.40
2018-02-13T01:17:06.739Z,5.75
2018-02-13T01:19:34.976Z,5.20
2018-02-13T01:22:02.469Z,5.65
2018-02-13T01:24:30.449Z,4.95
2018-02-13T01:26:58.689Z,5.47
2018-02-13T01:29:26.169Z,5.85
2018-02-13T01:31:53.697Z,6.93
2018-02-13T01:34:21.169Z,5.70
2018-02-13T01:36:48.688Z,5.50
2018-02-13T01:39:16.208Z,4.72
2018-02-13T01:41:44.805Z,5.28
2018-02-13T01:44:13.057Z,5.37
2018-02-13T01:46:41.139Z,5.68
2018-02-13T01:49:08.638Z,5.95
2018-02-13T01:51:36.226Z,5.75
2018-02-13T01:54:03.721Z,6.10
2018-02-13T01:56:35.930Z,5.30
2018-02-13T01:59:03.425Z,5.57
2018-02-13T02:01:30.909Z,5.82
2018-02-13T02:03:59.177Z,6.53
2018-02-13T02:06:26.753Z,5.95
2018-02-13T02:08:55.018Z,6.40
2018-02-13T02:11:22.535Z,6.07
2018-02-13T02:13:50.054Z,5.53
2018-02-13T02:16:17.861Z,6.45
2018-02-13T02:18:47.039Z,6.40
2018-02-13T02:21:14.601Z,7.10
2018-02-13T02:23:42.945Z,7.40
2018-02-13T02:26:11.913Z,6.93
2018-02-13T02:28:39.385Z,7.25
2018-02-13T02:31:06.862Z,6.78
2018-02-13T02:33:35.601Z,6.55
2018-02-13T02:36:03.097Z,5.82
2018-02-13T02:38:31.333Z,5.55
2018-02-13T02:40:58.829Z,6.60
2018-02-13T02:43:27.087Z,5.75
2018-02-13T02:45:54.569Z,6.65
2018-02-13T02:48:22.833Z,7.45
2018-02-13T02:50:50.314Z,6.37
2018-02-13T02:53:18.549Z,5.68
2018-02-13T02:55:46.102Z,6.22
2018-02-13T02:58:13.759Z,6.03
2018-02-13T03:00:41.666Z,5.32
2018-02-13T03:03:10.049Z,5.50
2018-02-13T03:05:37.563Z,5.65
2018-02-13T03:08:05.140Z,4.35
2018-02-13T03:10:32.667Z,4.72
2018-02-13T03:13:00.145Z,4.80
2018-02-13T03:15:27.634Z,5.80
2018-02-13T03:17:55.233Z,4.28
2018-02-13T03:20:22.713Z,5.20
2018-02-13T03:22:50.196Z,4.97
2018-02-13T03:25:17.681Z,5.28
2018-02-13T03:27:45.925Z,4.37
2018-02-13T03:30:13.473Z,4.20
2018-02-13T03:32:40.970Z,4.18
2018-02-13T03:35:08.438Z,4.18
2018-02-13T03:37:36.689Z,4.10
2018-02-13T03:40:04.225Z,3.97
2018-02-13T03:42:31.713Z,4.85
2018-02-13T03:44:59.181Z,5.35
2018-02-13T03:47:27.441Z,4.45
2018-02-13T03:49:54.913Z,4.43
2018-02-13T03:52:23.182Z,4.57
2018-02-13T03:54:50.786Z,3.90
2018-02-13T03:57:18.422Z,4.20
2018-02-13T03:59:46.690Z,3.87
2018-02-13T04:02:15.011Z,4.43
2018-02-13T04:04:43.233Z,5.45
2018-02-13T04:07:10.728Z,4.20
2018-02-13T04:09:38.201Z,4.85
2018-02-13T04:12:05.674Z,4.20
2018-02-13T04:14:33.991Z,5.32
2018-02-13T04:17:02.370Z,4.07
2018-02-13T04:19:30.609Z,4.35
2018-02-13T04:21:58.893Z,4.82
2018-02-13T04:24:26.369Z,3.42
2018-02-13T04:26:53.837Z,6.28
2018-02-13T04:29:21.334Z,4.35
2018-02-13T04:31:48.813Z,4.25
2018-02-13T04:34:16.309Z,4.65
2018-02-13T04:36:43.837Z,3.97
2018-02-13T04:39:11.332Z,4.32
2018-02-13T04:41:39.632Z,4.65
2018-02-13T04:44:09.082Z,4.70
2018-02-13T04:46:36.579Z,3.62
2018-02-13T04:49:05.736Z,5.62
2018-02-13T04:51:33.225Z,3.92
2018-02-13T04:54:00.725Z,3.75
2018-02-13T04:56:28.287Z,3.62
2018-02-13T04:58:55.945Z,3.40
2018-02-13T05:01:23.445Z,5.07
2018-02-13T05:03:51.068Z,3.80
2018-02-13T05:06:18.626Z,3.15
2018-02-13T05:08:46.101Z,3.70
2018-02-13T05:11:13.606Z,4.43
2018-02-13T05:13:41.246Z,2.70
2018-02-13T05:16:08.739Z,3.65
2018-02-13T05:18:37.029Z,3.80
2018-02-13T05:21:04.615Z,3.20
2018-02-13T05:23:32.094Z,4.32
2018-02-13T05:25:59.582Z,3.50
2018-02-13T05:28:27.853Z,3.05
2018-02-13T05:30:55.329Z,4.18
2018-02-13T05:33:23.670Z,3.87
2018-02-13T05:35:51.171Z,3.47
2018-02-13T05:38:18.748Z,3.97
2018-02-13T05:40:46.233Z,3.80
2018-02-13T05:43:13.757Z,4.15
2018-02-13T05:45:41.230Z,3.92
2018-02-13T05:48:08.713Z,4.03
2018-02-13T05:50:36.206Z,3.55
2018-02-13T05:53:04.516Z,3.65
2018-02-13T05:55:31.994Z,3.85
2018-02-13T05:57:59.508Z,4.20
2018-02-13T06:00:27.765Z,4.75
2018-02-13T06:02:55.248Z,3.72
2018-02-13T06:05:23.517Z,3.60
2018-02-13T06:07:52.602Z,4.03
2018-02-13T06:10:20.869Z,4.45
2018-02-13T06:12:49.163Z,4.00
2018-02-13T06:15:16.669Z,3.30
2018-02-13T06:17:44.161Z,3.95
2018-02-13T06:20:11.721Z,4.32
2018-02-13T06:22:39.926Z,4.05
2018-02-13T06:25:08.182Z,3.85
2018-02-13T06:27:35.681Z,3.58
2018-02-13T06:30:03.339Z,3.70
2018-02-13T06:32:30.829Z,4.12
2018-02-13T06:34:58.359Z,3.60
2018-02-13T06:37:25.850Z,4.20
2018-02-13T06:39:53.448Z,4.60
2018-02-13T06:42:21.046Z,4.03
2018-02-13T06:44:48.526Z,3.53
2018-02-13T06:47:16.015Z,3.80
2018-02-13T06:49:43.498Z,3.85
2018-02-13T06:52:11.768Z,4.30
2018-02-13T06:54:40.024Z,4.07
2018-02-13T06:57:07.502Z,4.03
2018-02-13T06:59:35.786Z,4.47
2018-02-13T07:02:03.263Z,4.40
2018-02-13T07:04:30.737Z,4.82
2018-02-13T07:06:58.242Z,3.80
2018-02-13T07:09:27.245Z,4.68
2018-02-13T07:11:54.728Z,3.30
2018-02-13T07:14:22.920Z,4.43
2018-02-13T07:16:51.342Z,4.80
2018-02-13T07:19:19.763Z,4.60
2018-02-13T07:21:47.250Z,4.07
2018-02-13T07:24:14.778Z,4.60
2018-02-13T07:26:42.281Z,5.60
2018-02-13T07:29:09.773Z,6.32
2018-02-13T07:31:38.216Z,5.35
2018-02-13T07:34:05.659Z,4.35
2018-02-13T07:36:33.169Z,5.22
2018-02-13T07:39:01.434Z,4.90
2018-02-13T07:41:29.732Z,5.47
2018-02-13T07:43:57.271Z,6.05
2018-02-13T07:46:25.551Z,4.68
2018-02-13T07:48:54.082Z,5.70
2018-02-13T07:51:21.627Z,5.18
2018-02-13T07:53:49.113Z,5.20
2018-02-13T07:56:16.749Z,5.18
2018-02-13T07:58:45.051Z,5.40
2018-02-13T08:01:13.304Z,5.25
2018-02-13T08:03:40.794Z,5.07
2018-02-13T08:06:08.269Z,4.37
2018-02-13T08:08:35.854Z,4.70
2018-02-13T08:11:03.374Z,6.07
2018-02-13T08:13:30.862Z,4.35
2018-02-13T08:16:00.012Z,3.78
2018-02-13T08:18:28.259Z,4.75
2018-02-13T08:20:55.732Z,4.10
2018-02-13T08:23:23.261Z,4.43
2018-02-13T08:25:51.501Z,4.28
2018-02-13T08:28:18.998Z,4.15
2018-02-13T08:30:47.272Z,3.60
2018-02-13T08:33:14.810Z,4.60
2018-02-13T08:35:42.313Z,3.87
2018-02-13T08:38:09.805Z,4.25
2018-02-13T08:40:37.313Z,3.55
2018-02-13T08:43:05.589Z,2.50
2018-02-13T08:45:33.104Z,3.42
2018-02-13T08:48:00.604Z,2.90
2018-02-13T08:50:28.881Z,3.05
2018-02-13T08:52:57.133Z,3.17
2018-02-13T08:55:24.601Z,3.78
2018-02-13T08:57:52.249Z,3.03
2018-02-13T09:00:19.721Z,2.78
2018-02-13T09:02:47.279Z,3.53
2018-02-13T09:05:14.928Z,2.87
2018-02-13T09:07:43.361Z,3.85
2018-02-13T09:10:10.872Z,3.30
2018-02-13T09:12:38.388Z,3.80
2018-02-13T09:15:05.865Z,4.00
2018-02-13T09:17:33.354Z,3.70
2018-02-13T09:20:00.850Z,4.12
2018-02-13T09:22:28.325Z,4.05
2018-02-13T09:24:55.988Z,4.03
2018-02-13T09:27:24.429Z,3.22
2018-02-13T09:29:51.943Z,3.83
2018-02-13T09:32:19.425Z,5.20
2018-02-13T09:34:47.184Z,3.67
2018-02-13T09:37:14.889Z,4.12
2018-02-13T09:39:42.411Z,2.80
2018-02-13T09:42:09.881Z,3.85
2018-02-13T09:44:38.117Z,3.75
2018-02-13T09:47:05.617Z,4.32
2018-02-13T09:49:33.889Z,3.53
2018-02-13T09:52:02.161Z,3.30
2018-02-13T09:54:29.675Z,3.55
2018-02-13T09:56:57.145Z,3.17
2018-02-13T09:59:24.637Z,5.10
2018-02-13T10:01:52.349Z,3.70
2018-02-13T10:04:19.821Z,3.92
2018-02-13T10:06:47.297Z,3.58
2018-02-13T10:09:14.829Z,3.55
2018-02-13T10:11:42.302Z,4.80
2018-02-13T10:14:09.782Z,2.83
2018-02-13T10:16:37.317Z,3.17
2018-02-13T10:19:04.811Z,3.80
2018-02-13T10:21:33.065Z,2.83
2018-02-13T10:24:00.565Z,3.83
2018-02-13T10:26:28.076Z,4.43
2018-02-13T10:28:55.565Z,3.65
2018-02-13T10:31:23.923Z,3.50
2018-02-13T10:33:51.413Z,3.15
2018-02-13T10:36:19.833Z,3.10
2018-02-13T10:38:47.458Z,3.85
2018-02-13T10:41:15.877Z,3.80
2018-02-13T10:43:44.219Z,2.50
2018-02-13T10:46:11.745Z,3.72
2018-02-13T10:48:39.400Z,3.28
2018-02-13T10:51:06.886Z,3.28
2018-02-13T10:53:35.162Z,2.53
2018-02-13T10:56:03.415Z,3.05
2018-02-13T10:58:30.898Z,2.85
2018-02-13T11:01:04.870Z,3.33
2018-02-13T11:03:32.357Z,2.80
2018-02-13T11:06:00.622Z,3.10
2018-02-13T11:08:28.170Z,2.90
2018-02-13T11:10:55.666Z,2.83
2018-02-13T11:13:23.939Z,2.58
2018-02-13T11:15:52.367Z,3.17
2018-02-13T11:18:20.702Z,2.80
2018-02-13T11:20:48.980Z,2.62
2018-02-13T11:23:16.621Z,2.37
2018-02-13T11:25:44.905Z,3.55
2018-02-13T11:28:13.330Z,2.08
2018-02-13T11:30:40.937Z,2.78
2018-02-13T11:33:08.451Z,1.80
2018-02-13T11:35:35.973Z,2.53
2018-02-13T11:38:04.259Z,1.85
2018-02-13T11:40:32.675Z,2.20
2018-02-13T11:43:00.231Z,2.45
2018-02-13T11:45:28.571Z,1.73
2018-02-13T11:47:56.821Z,2.00
2018-02-13T11:50:24.318Z,1.75
2018-02-13T11:52:51.805Z,2.10
2018-02-13T11:55:19.310Z,2.30
2018-02-13T11:57:46.809Z,1.85
2018-02-13T12:00:14.376Z,1.70
2018-02-13T12:02:42.041Z,2.15
2018-02-13T12:05:09.705Z,2.03
2018-02-13T12:07:37.213Z,2.67
2018-02-13T12:10:05.469Z,1.80
2018-02-13T12:12:32.955Z,2.00
2018-02-13T12:15:00.506Z,1.40
2018-02-13T12:17:28.758Z,1.40
2018-02-13T12:19:56.246Z,1.87
2018-02-13T12:22:24.525Z,2.22
2018-02-13T12:24:52.782Z,1.97
2018-02-13T12:27:20.301Z,1.60
2018-02-13T12:29:47.817Z,1.87
2018-02-13T12:32:16.065Z,1.60
2018-02-13T12:34:43.557Z,1.60
2018-02-13T12:37:11.871Z,1.55
2018-02-13T12:39:39.364Z,2.85
2018-02-13T12:42:07.618Z,2.03
2018-02-13T12:44:35.179Z,2.00
2018-02-13T12:47:02.705Z,2.37
2018-02-13T12:49:30.197Z,1.60
2018-02-13T12:51:57.702Z,1.60
2018-02-13T12:54:25.208Z,2.00
2018-02-13T12:56:52.697Z,1.60
2018-02-13T12:59:20.229Z,1.80
2018-02-13T13:01:47.729Z,2.00
2018-02-13T13:04:15.373Z,2.13
2018-02-13T13:06:42.901Z,1.90
2018-02-13T13:09:10.376Z,1.60
2018-02-13T13:11:38.080Z,1.65
2018-02-13T13:14:05.762Z,1.75
2018-02-13T13:16:33.451Z,1.50
2018-02-13T13:19:00.970Z,1.97
2018-02-13T13:21:28.526Z,1.70
2018-02-13T13:23:56.957Z,2.10
2018-02-13T13:26:24.665Z,1.58
2018-02-13T13:28:52.334Z,2.08
2018-02-13T13:31:20.613Z,1.85
2018-02-13T13:33:48.235Z,1.60
2018-02-13T13:36:15.751Z,1.83
2018-02-13T13:38:43.260Z,1.70
2018-02-13T13:41:10.818Z,1.50
2018-02-13T13:43:38.330Z,1.95
2018-02-13T13:46:06.078Z,1.70
2018-02-13T13:48:33.610Z,1.70
2018-02-13T13:51:01.105Z,1.60
2018-02-13T13:53:28.601Z,1.95
2018-02-13T13:55:56.207Z,2.15
2018-02-13T13:58:23.818Z,1.92
2018-02-13T14:00:51.302Z,2.10
2018-02-13T14:03:18.786Z,1.83
2018-02-13T14:05:47.277Z,1.55
2018-02-13T14:08:14.777Z,1.95
2018-02-13T14:10:42.278Z,1.60
2018-02-13T14:13:11.436Z,1.70
2018-02-13T14:15:38.933Z,1.60
2018-02-13T14:18:06.436Z,1.60
2018-02-13T14:20:34.080Z,1.95
2018-02-13T14:23:01.734Z,1.80
2018-02-13T14:25:30.026Z,1.45
2018-02-13T14:27:57.518Z,1.58
2018-02-13T14:30:24.998Z,1.77
2018-02-13T14:32:52.482Z,1.70
2018-02-13T14:35:20.745Z,1.58
2018-02-13T14:37:48.387Z,1.60
2018-02-13T14:40:15.867Z,1.60
2018-02-13T14:42:43.414Z,1.75
2018-02-13T14:45:10.901Z,1.80
2018-02-13T14:47:39.157Z,1.60
2018-02-13T14:50:06.710Z,1.60
2018-02-13T14:52:34.272Z,1.48
2018-02-13T14:55:01.753Z,1.73
2018-02-13T14:57:30.039Z,1.92
2018-02-13T14:59:58.506Z,1.65
2018-02-13T15:02:26.029Z,1.52
2018-02-13T15:04:54.523Z,1.60
2018-02-13T15:07:22.049Z,1.70
2018-02-13T15:09:49.683Z,1.73
2018-02-13T15:12:17.185Z,1.85
2018-02-13T15:14:56.556Z,2.17
2018-02-13T15:17:25.321Z,1.60
2018-02-13T15:19:52.828Z,1.70
2018-02-13T15:22:20.330Z,1.80
2018-02-13T15:24:47.866Z,1.90
2018-02-13T15:27:16.081Z,2.00
2018-02-13T15:29:43.581Z,1.65
2018-02-13T15:32:11.845Z,1.70
2018-02-13T15:34:40.106Z,1.98
2018-02-13T15:37:07.649Z,1.95
2018-02-13T15:39:35.183Z,1.80
2018-02-13T15:42:02.844Z,1.60
2018-02-13T15:44:30.431Z,1.42
2018-02-13T15:47:01.326Z,1.70
2018-02-13T15:49:28.814Z,1.62
2018-02-13T15:51:57.131Z,1.50
2018-02-13T15:54:24.650Z,1.50
2018-02-13T15:56:52.142Z,1.52
2018-02-13T15:59:19.669Z,1.40
2018-02-13T16:01:47.157Z,1.70
2018-02-13T16:04:14.662Z,1.80
2018-02-13T16:06:42.142Z,1.70
2018-02-13T16:09:09.651Z,2.70
2018-02-13T16:11:37.926Z,1.50
2018-02-13T16:14:06.177Z,2.22
2018-02-13T16:16:38.987Z,1.75
2018-02-13T16:19:07.274Z,1.67
2018-02-13T16:21:34.752Z,1.58
2018-02-13T16:24:02.234Z,2.05
2018-02-13T16:26:29.728Z,1.87
2018-02-13T16:28:57.994Z,1.70
2018-02-13T16:31:25.728Z,1.73
2018-02-13T16:33:53.226Z,1.92
2018-02-13T16:36:21.670Z,1.62
2018-02-13T16:38:49.181Z,1.90
2018-02-13T16:41:17.207Z,1.92
2018-02-13T16:43:46.670Z,2.30
2018-02-13T16:46:14.978Z,3.00
2018-02-13T16:48:42.860Z,1.92
2018-02-13T16:51:23.374Z,1.80
2018-02-13T16:53:50.948Z,2.00
2018-02-13T16:56:18.430Z,2.10
2018-02-13T16:58:45.938Z,1.80
2018-02-13T17:01:14.217Z,1.83
2018-02-13T17:03:42.461Z,2.10
2018-02-13T17:06:09.939Z,1.98
2018-02-13T17:08:37.454Z,2.08
2018-02-13T17:11:04.925Z,2.40
2018-02-13T17:13:32.393Z,2.55
2018-02-13T17:16:00.064Z,2.60
2018-02-13T17:18:27.645Z,1.90
2018-02-13T17:20:55.925Z,2.40
2018-02-13T17:23:24.789Z,2.42
2018-02-13T17:25:52.265Z,2.37
2018-02-13T17:28:20.522Z,2.67
2018-02-13T17:30:48.010Z,2.03
2018-02-13T17:33:16.336Z,2.30
2018-02-13T17:35:44.610Z,2.80
2018-02-13T17:38:12.090Z,2.37
2018-02-13T17:40:39.656Z,2.33
2018-02-13T17:43:07.958Z,2.87
2018-02-13T17:45:36.209Z,2.92
2018-02-13T17:48:03.804Z,2.20
2018-02-13T17:50:32.078Z,2.47
2018-02-13T17:53:01.218Z,3.17
2018-02-13T17:55:28.791Z,4.10
2018-02-13T17:57:56.358Z,2.90
2018-02-13T18:00:24.650Z,2.45
2018-02-13T18:02:52.213Z,3.10
2018-02-13T18:05:20.485Z,2.92
2018-02-13T18:07:47.964Z,2.53
2018-02-13T18:10:21.532Z,2.25
2018-02-13T18:12:50.090Z,2.40
2018-02-13T18:15:18.606Z,2.97
2018-02-13T18:17:46.801Z,2.70
2018-02-13T18:20:15.350Z,3.10
2018-02-13T18:22:42.835Z,3.30
2018-02-13T18:25:11.281Z,2.92
2018-02-13T18:27:38.945Z,4.10
2018-02-13T18:30:06.430Z,3.40
2018-02-13T18:32:34.020Z,4.30
2018-02-13T18:35:01.497Z,4.05
2018-02-13T18:37:29.009Z,4.15
2018-02-13T18:39:56.509Z,3.85
2018-02-13T18:42:24.293Z,3.75
2018-02-13T18:44:51.811Z,3.70
2018-02-13T18:47:19.290Z,4.32
2018-02-13T18:49:47.045Z,4.87
2018-02-13T18:54:43.125Z,3.83
2018-02-13T18:57:10.609Z,5.05
2018-02-13T18:59:42.458Z,4.15
2018-02-13T19:02:10.022Z,5.18
2018-02-13T19:04:37.936Z,4.37
2018-02-13T19:07:05.434Z,4.30
2018-02-13T19:09:33.002Z,4.78
2018-02-13T19:12:00.654Z,4.70
2018-02-13T19:14:28.155Z,4.30
2018-02-13T19:19:24.307Z,4.10
2018-02-13T19:21:51.792Z,4.30
2018-02-13T19:24:22.265Z,4.40
2018-02-13T19:26:49.741Z,4.40
2018-02-13T19:29:17.998Z,4.25
2018-02-13T19:31:45.513Z,4.30
2018-02-13T19:34:13.087Z,5.32
2018-02-13T19:36:40.854Z,4.60
2018-02-13T19:39:08.564Z,4.18
2018-02-13T19:41:36.058Z,5.10
2018-02-13T19:44:04.415Z,5.18
2018-02-13T19:46:32.018Z,4.37
2018-02-13T19:48:59.493Z,4.78
2018-02-13T19:51:27.379Z,3.97
2018-02-13T19:53:54.905Z,5.82
2018-02-13T19:56:23.395Z,4.07
2018-02-13T19:58:50.961Z,4.12
2018-02-13T20:01:18.714Z,4.80
2018-02-13T20:03:46.934Z,3.95
2018-02-13T20:06:14.530Z,4.78
2018-02-13T20:08:42.075Z,5.55
2018-02-13T20:11:10.188Z,5.10
2018-02-13T20:13:37.957Z,5.50
2018-02-13T20:16:05.449Z,4.45
2018-02-13T20:18:32.934Z,4.37
2018-02-13T20:21:00.417Z,4.87
2018-02-13T20:23:28.806Z,4.82
2018-02-13T20:25:57.256Z,5.07
2018-02-13T20:28:24.751Z,5.78
2018-02-13T20:30:52.282Z,6.20
2018-02-13T20:33:19.765Z,5.00
2018-02-13T20:35:47.385Z,6.07
2018-02-13T20:38:15.770Z,5.72
2018-02-13T20:40:43.241Z,6.65
2018-02-13T20:43:10.720Z,4.80
2018-02-13T20:45:38.233Z,5.07
2018-02-13T20:48:05.713Z,5.20
2018-02-13T20:50:33.225Z,5.30
2018-02-13T20:53:01.494Z,5.07
2018-02-13T20:55:29.766Z,5.07
2018-02-13T20:57:58.042Z,5.35
2018-02-13T21:00:25.577Z,5.50
2018-02-13T21:02:53.083Z,4.90
2018-02-13T21:05:20.746Z,6.43
2018-02-13T21:07:48.247Z,5.35
2018-02-13T21:10:15.995Z,5.35
2018-02-13T21:12:43.593Z,5.15
2018-02-13T21:15:11.183Z,5.22
2018-02-13T21:17:39.976Z,5.80
2018-02-13T21:20:07.979Z,5.45
2018-02-13T21:22:36.290Z,5.15
2018-02-13T21:25:03.806Z,4.80
2018-02-13T21:27:31.472Z,4.22
2018-02-13T21:29:58.981Z,5.25
2018-02-13T21:32:29.629Z,5.70
2018-02-13T21:34:57.998Z,5.55
2018-02-13T21:37:26.539Z,4.47
2018-02-13T21:39:57.844Z,5.97
2018-02-13T21:42:26.298Z,5.20
2018-02-13T21:44:54.221Z,4.53
2018-02-13T21:47:21.697Z,5.53
2018-02-13T21:49:49.284Z,4.85
2018-02-13T21:52:16.997Z,5.05
2018-02-13T21:54:45.137Z,5.30
2018-02-13T21:57:12.634Z,4.20
2018-02-13T21:59:40.129Z,4.90
2018-02-13T22:02:07.646Z,5.30
2018-02-13T22:04:35.204Z,4.57
2018-02-13T22:07:02.690Z,4.95
2018-02-13T22:09:30.283Z,5.12
2018-02-13T22:11:57.809Z,4.50
2018-02-13T22:14:26.174Z,5.37
2018-02-13T22:16:53.650Z,5.70
2018-02-13T22:19:21.162Z,5.90
2018-02-13T22:21:48.870Z,6.82
2018-02-13T22:24:16.382Z,5.60
2018-02-13T22:26:43.888Z,5.65
2018-02-13T22:29:11.610Z,4.60
2018-02-13T22:31:42.716Z,5.28
2018-02-13T22:34:16.250Z,4.12
2018-02-13T22:36:43.746Z,4.60
2018-02-13T22:39:15.949Z,4.32
2018-02-13T22:41:43.672Z,4.00
2018-02-13T22:44:15.479Z,4.28
2018-02-13T22:46:43.386Z,3.83
2018-02-13T22:49:10.865Z,5.25
2018-02-13T22:51:38.414Z,4.50
2018-02-13T22:54:07.246Z,4.22
2018-02-13T22:56:35.646Z,4.00
2018-02-13T22:59:03.898Z,4.85
2018-02-13T23:01:31.418Z,4.28
2018-02-13T23:03:58.946Z,4.72
2018-02-13T23:06:26.445Z,4.95
2018-02-13T23:08:53.938Z,4.12
2018-02-13T23:11:22.182Z,4.18
2018-02-13T23:13:49.674Z,3.95
2018-02-13T23:16:17.184Z,4.55
2018-02-13T23:18:45.478Z,5.22
2018-02-13T23:21:12.966Z,5.12
2018-02-13T23:23:40.493Z,4.18
2018-02-13T23:26:08.154Z,4.30
2018-02-13T23:28:35.739Z,4.57
2018-02-13T23:31:03.229Z,4.07
2018-02-13T23:33:30.714Z,5.00
2018-02-13T23:35:58.320Z,4.30
2018-02-13T23:38:25.842Z,4.40
2018-02-13T23:40:53.445Z,4.37
2018-02-13T23:43:20.934Z,4.85
2018-02-13T23:45:48.418Z,4.28
2018-02-13T23:48:16.016Z,4.72
2018-02-13T23:50:43.501Z,4.40
2018-02-13T23:53:12.643Z,4.90
2018-02-13T23:55:40.206Z,4.37
2018-02-13T23:58:07.793Z,4.50
